sensor_id;sensor_type;location;lat;lon;timestamp;temperature;humidity
23813;DHT22;12087;45.190;5.688;2023-01-19T00:04:47;2.30;99.90
23813;DHT22;12087;45.190;5.688;2023-01-19T00:10:10;2.30;99.90
23813;DHT22;12087;45.190;5.688;2023-01-19T00:15:32;2.40;99.90
23813;DHT22;12087;45.190;5.688;2023-01-19T00:20:56;2.40;99.90
23813;DHT22;12087;45.190;5.688;2023-01-19T00:26:18;2.40;99.90
23813;DHT22;12087;45.190;5.688;2023-01-19T00:31:42;2.40;99.90
23813;DHT22;12087;45.190;5.688;2023-01-19T00:37:07;2.20;99.90
23813;DHT22;12087;45.190;5.688;2023-01-19T00:42:29;2.20;99.90
23813;DHT22;12087;45.190;5.688;2023-01-19T00:48:05;2.10;99.90
23813;DHT22;12087;45.190;5.688;2023-01-19T00:53:29;2.10;99.90
23813;DHT22;12087;45.190;5.688;2023-01-19T00:58:52;2.10;99.90
23813;DHT22;12087;45.190;5.688;2023-01-19T01:04:14;2.10;99.90
23813;DHT22;12087;45.190;5.688;2023-01-19T01:09:38;2.10;99.90
23813;DHT22;12087;45.190;5.688;2023-01-19T01:15:00;2.00;99.90
23813;DHT22;12087;45.190;5.688;2023-01-19T01:20:24;1.90;99.90
23813;DHT22;12087;45.190;5.688;2023-01-19T01:25:48;1.90;99.90
23813;DHT22;12087;45.190;5.688;2023-01-19T01:31:11;1.80;99.90
23813;DHT22;12087;45.190;5.688;2023-01-19T01:36:33;1.80;99.90
23813;DHT22;12087;45.190;5.688;2023-01-19T01:41:57;1.70;99.90
23813;DHT22;12087;45.190;5.688;2023-01-19T01:47:26;1.70;99.90
23813;DHT22;12087;45.190;5.688;2023-01-19T01:52:51;1.70;99.90
23813;DHT22;12087;45.190;5.688;2023-01-19T01:58:16;1.70;99.90
23813;DHT22;12087;45.190;5.688;2023-01-19T02:03:38;1.70;99.90
23813;DHT22;12087;45.190;5.688;2023-01-19T02:09:03;1.70;99.90
23813;DHT22;12087;45.190;5.688;2023-01-19T02:14:45;1.60;99.90
23813;DHT22;12087;45.190;5.688;2023-01-19T02:20:09;1.70;99.90
23813;DHT22;12087;45.190;5.688;2023-01-19T02:25:33;1.70;99.90
23813;DHT22;12087;45.190;5.688;2023-01-19T02:30:55;1.70;99.90
23813;DHT22;12087;45.190;5.688;2023-01-19T02:36:21;1.70;99.90
23813;DHT22;12087;45.190;5.688;2023-01-19T02:41:49;1.60;99.90
23813;DHT22;12087;45.190;5.688;2023-01-19T02:47:13;1.60;99.90
23813;DHT22;12087;45.190;5.688;2023-01-19T02:52:35;1.60;99.90
23813;DHT22;12087;45.190;5.688;2023-01-19T02:58:03;1.60;99.90
23813;DHT22;12087;45.190;5.688;2023-01-19T03:03:32;1.60;99.90
23813;DHT22;12087;45.190;5.688;2023-01-19T03:09:01;1.60;99.90
23813;DHT22;12087;45.190;5.688;2023-01-19T03:14:28;1.60;99.90
23813;DHT22;12087;45.190;5.688;2023-01-19T03:19:53;1.60;99.90
23813;DHT22;12087;45.190;5.688;2023-01-19T03:25:17;1.50;99.90
23813;DHT22;12087;45.190;5.688;2023-01-19T03:30:43;1.50;99.90
23813;DHT22;12087;45.190;5.688;2023-01-19T03:36:10;1.50;99.90
23813;DHT22;12087;45.190;5.688;2023-01-19T03:41:35;1.50;99.90
23813;DHT22;12087;45.190;5.688;2023-01-19T03:47:01;1.50;99.90
23813;DHT22;12087;45.190;5.688;2023-01-19T03:52:27;1.40;99.90
23813;DHT22;12087;45.190;5.688;2023-01-19T03:57:50;1.40;99.90
23813;DHT22;12087;45.190;5.688;2023-01-19T04:03:15;1.40;99.90
23813;DHT22;12087;45.190;5.688;2023-01-19T04:08:37;1.40;99.90
23813;DHT22;12087;45.190;5.688;2023-01-19T04:14:00;1.40;99.90
23813;DHT22;12087;45.190;5.688;2023-01-19T04:19:24;1.30;99.90
23813;DHT22;12087;45.190;5.688;2023-01-19T04:24:46;1.30;99.90
23813;DHT22;12087;45.190;5.688;2023-01-19T04:30:09;1.30;99.90
23813;DHT22;12087;45.190;5.688;2023-01-19T04:35:33;1.20;99.90
23813;DHT22;12087;45.190;5.688;2023-01-19T04:40:56;1.20;99.90
23813;DHT22;12087;45.190;5.688;2023-01-19T04:46:18;1.20;99.90
23813;DHT22;12087;45.190;5.688;2023-01-19T04:51:42;1.10;99.90
23813;DHT22;12087;45.190;5.688;2023-01-19T04:57:04;1.00;99.90
23813;DHT22;12087;45.190;5.688;2023-01-19T05:02:26;0.90;99.90
23813;DHT22;12087;45.190;5.688;2023-01-19T05:07:50;0.90;99.90
23813;DHT22;12087;45.190;5.688;2023-01-19T05:13:12;0.90;99.90
23813;DHT22;12087;45.190;5.688;2023-01-19T05:18:34;0.80;99.90
23813;DHT22;12087;45.190;5.688;2023-01-19T05:23:58;0.70;99.90
23813;DHT22;12087;45.190;5.688;2023-01-19T05:29:21;0.70;99.90
23813;DHT22;12087;45.190;5.688;2023-01-19T05:34:43;0.70;99.90
23813;DHT22;12087;45.190;5.688;2023-01-19T05:40:08;0.70;99.90
23813;DHT22;12087;45.190;5.688;2023-01-19T05:45:31;0.60;99.90
23813;DHT22;12087;45.190;5.688;2023-01-19T05:50:56;0.60;99.90
23813;DHT22;12087;45.190;5.688;2023-01-19T05:56:20;0.60;99.90
23813;DHT22;12087;45.190;5.688;2023-01-19T06:01:42;0.60;99.90
23813;DHT22;12087;45.190;5.688;2023-01-19T06:07:05;0.60;99.90
23813;DHT22;12087;45.190;5.688;2023-01-19T06:12:28;0.60;99.90
23813;DHT22;12087;45.190;5.688;2023-01-19T06:17:52;0.50;99.90
23813;DHT22;12087;45.190;5.688;2023-01-19T06:23:14;0.40;99.90
23813;DHT22;12087;45.190;5.688;2023-01-19T06:28:38;0.40;99.90
23813;DHT22;12087;45.190;5.688;2023-01-19T06:34:00;0.40;99.90
23813;DHT22;12087;45.190;5.688;2023-01-19T06:39:22;0.40;99.90
23813;DHT22;12087;45.190;5.688;2023-01-19T06:44:46;0.40;99.90
23813;DHT22;12087;45.190;5.688;2023-01-19T06:50:09;0.30;99.90
23813;DHT22;12087;45.190;5.688;2023-01-19T06:55:31;0.40;99.90
23813;DHT22;12087;45.190;5.688;2023-01-19T07:01:00;0.40;99.90
23813;DHT22;12087;45.190;5.688;2023-01-19T07:06:22;0.30;99.90
23813;DHT22;12087;45.190;5.688;2023-01-19T07:11:44;0.30;99.90
23813;DHT22;12087;45.190;5.688;2023-01-19T07:17:09;0.30;99.90
23813;DHT22;12087;45.190;5.688;2023-01-19T07:22:31;0.20;99.90
23813;DHT22;12087;45.190;5.688;2023-01-19T07:27:56;0.20;99.90
23813;DHT22;12087;45.190;5.688;2023-01-19T07:33:21;0.20;99.90
23813;DHT22;12087;45.190;5.688;2023-01-19T07:38:44;0.20;99.90
23813;DHT22;12087;45.190;5.688;2023-01-19T07:44:06;0.10;99.90
23813;DHT22;12087;45.190;5.688;2023-01-19T07:49:30;0.10;99.90
23813;DHT22;12087;45.190;5.688;2023-01-19T07:54:52;0.10;99.90
23813;DHT22;12087;45.190;5.688;2023-01-19T08:00:15;0.10;99.90
23813;DHT22;12087;45.190;5.688;2023-01-19T08:05:40;0.20;99.90
23813;DHT22;12087;45.190;5.688;2023-01-19T08:11:03;0.20;99.90
23813;DHT22;12087;45.190;5.688;2023-01-19T08:16:25;0.30;99.90
23813;DHT22;12087;45.190;5.688;2023-01-19T08:21:49;0.30;99.90
23813;DHT22;12087;45.190;5.688;2023-01-19T08:27:11;0.40;99.90
23813;DHT22;12087;45.190;5.688;2023-01-19T08:32:34;0.60;99.90
23813;DHT22;12087;45.190;5.688;2023-01-19T08:37:57;0.60;99.90
23813;DHT22;12087;45.190;5.688;2023-01-19T08:43:21;0.80;99.90
23813;DHT22;12087;45.190;5.688;2023-01-19T08:48:43;1.00;99.90
23813;DHT22;12087;45.190;5.688;2023-01-19T08:54:09;1.20;99.90
23813;DHT22;12087;45.190;5.688;2023-01-19T08:59:31;1.40;99.90
23813;DHT22;12087;45.190;5.688;2023-01-19T09:04:53;1.50;99.90
23813;DHT22;12087;45.190;5.688;2023-01-19T09:10:18;1.70;99.90
23813;DHT22;12087;45.190;5.688;2023-01-19T09:15:41;1.80;99.90
23813;DHT22;12087;45.190;5.688;2023-01-19T09:21:03;1.90;99.90
23813;DHT22;12087;45.190;5.688;2023-01-19T09:26:27;2.00;99.90
23813;DHT22;12087;45.190;5.688;2023-01-19T09:31:49;2.10;99.90
23813;DHT22;12087;45.190;5.688;2023-01-19T09:37:12;2.20;99.90
23813;DHT22;12087;45.190;5.688;2023-01-19T09:42:41;2.30;99.90
23813;DHT22;12087;45.190;5.688;2023-01-19T09:48:06;2.50;99.90
23813;DHT22;12087;45.190;5.688;2023-01-19T09:53:50;2.60;99.90
23813;DHT22;12087;45.190;5.688;2023-01-19T09:59:20;2.70;99.90
23813;DHT22;12087;45.190;5.688;2023-01-19T10:04:49;2.80;99.90
23813;DHT22;12087;45.190;5.688;2023-01-19T10:10:19;2.90;99.90
23813;DHT22;12087;45.190;5.688;2023-01-19T10:15:50;2.90;99.90
23813;DHT22;12087;45.190;5.688;2023-01-19T10:21:18;3.00;99.90
23813;DHT22;12087;45.190;5.688;2023-01-19T10:26:43;3.00;99.90
23813;DHT22;12087;45.190;5.688;2023-01-19T10:32:10;3.00;99.90
23813;DHT22;12087;45.190;5.688;2023-01-19T10:37:35;3.00;99.90
23813;DHT22;12087;45.190;5.688;2023-01-19T10:42:59;3.10;99.90
23813;DHT22;12087;45.190;5.688;2023-01-19T10:48:23;2.90;99.90
23813;DHT22;12087;45.190;5.688;2023-01-19T10:53:59;2.90;99.90
23813;DHT22;12087;45.190;5.688;2023-01-19T10:59:31;2.90;99.90
23813;DHT22;12087;45.190;5.688;2023-01-19T11:04:56;3.00;99.90
23813;DHT22;12087;45.190;5.688;2023-01-19T11:10:21;3.00;99.90
23813;DHT22;12087;45.190;5.688;2023-01-19T11:15:49;3.00;99.90
23813;DHT22;12087;45.190;5.688;2023-01-19T11:21:15;3.00;99.90
23813;DHT22;12087;45.190;5.688;2023-01-19T11:26:40;3.00;99.90
23813;DHT22;12087;45.190;5.688;2023-01-19T11:32:11;3.10;99.90
23813;DHT22;12087;45.190;5.688;2023-01-19T11:37:35;3.10;99.90
23813;DHT22;12087;45.190;5.688;2023-01-19T11:42:57;3.10;99.90
23813;DHT22;12087;45.190;5.688;2023-01-19T11:48:26;3.20;99.90
23813;DHT22;12087;45.190;5.688;2023-01-19T11:53:52;3.30;99.90
23813;DHT22;12087;45.190;5.688;2023-01-19T11:59:14;3.30;99.90
23813;DHT22;12087;45.190;5.688;2023-01-19T12:04:38;3.40;99.90
23813;DHT22;12087;45.190;5.688;2023-01-19T12:10:22;3.50;99.90
23813;DHT22;12087;45.190;5.688;2023-01-19T12:15:47;3.50;99.90
23813;DHT22;12087;45.190;5.688;2023-01-19T12:21:11;3.50;99.90
23813;DHT22;12087;45.190;5.688;2023-01-19T12:26:43;3.60;99.90
23813;DHT22;12087;45.190;5.688;2023-01-19T12:32:17;3.70;99.90
23813;DHT22;12087;45.190;5.688;2023-01-19T12:37:41;3.80;99.90
23813;DHT22;12087;45.190;5.688;2023-01-19T12:43:12;3.90;99.90
23813;DHT22;12087;45.190;5.688;2023-01-19T12:48:37;4.00;99.90
23813;DHT22;12087;45.190;5.688;2023-01-19T12:54:01;4.20;99.90
23813;DHT22;12087;45.190;5.688;2023-01-19T12:59:27;4.20;99.90
23813;DHT22;12087;45.190;5.688;2023-01-19T13:05:10;4.30;99.90
23813;DHT22;12087;45.190;5.688;2023-01-19T13:16:58;4.50;99.90
23813;DHT22;12087;45.190;5.688;2023-01-19T13:28:27;4.50;99.90
23813;DHT22;12087;45.190;5.688;2023-01-19T13:33:54;4.50;99.90
23813;DHT22;12087;45.190;5.688;2023-01-19T13:39:20;4.50;99.90
23813;DHT22;12087;45.190;5.688;2023-01-19T13:44:46;4.40;99.90
23813;DHT22;12087;45.190;5.688;2023-01-19T13:50:20;4.50;99.90
23813;DHT22;12087;45.190;5.688;2023-01-19T13:55:42;4.80;99.90
23813;DHT22;12087;45.190;5.688;2023-01-19T14:01:05;4.90;99.90
23813;DHT22;12087;45.190;5.688;2023-01-19T14:06:36;5.00;99.90
23813;DHT22;12087;45.190;5.688;2023-01-19T14:12:09;5.20;99.90
23813;DHT22;12087;45.190;5.688;2023-01-19T14:17:32;5.30;99.90
23813;DHT22;12087;45.190;5.688;2023-01-19T14:22:55;5.30;99.90
23813;DHT22;12087;45.190;5.688;2023-01-19T14:28:33;5.10;99.90
23813;DHT22;12087;45.190;5.688;2023-01-19T14:34:02;5.10;99.90
23813;DHT22;12087;45.190;5.688;2023-01-19T14:39:27;4.90;99.90
23813;DHT22;12087;45.190;5.688;2023-01-19T14:44:52;4.70;99.90
23813;DHT22;12087;45.190;5.688;2023-01-19T14:50:21;4.50;99.90
23813;DHT22;12087;45.190;5.688;2023-01-19T14:55:47;4.40;99.90
23813;DHT22;12087;45.190;5.688;2023-01-19T15:01:10;4.30;99.90
23813;DHT22;12087;45.190;5.688;2023-01-19T15:06:32;4.20;99.90
23813;DHT22;12087;45.190;5.688;2023-01-19T15:11:56;4.10;99.90
23813;DHT22;12087;45.190;5.688;2023-01-19T15:17:20;3.90;99.90
23813;DHT22;12087;45.190;5.688;2023-01-19T15:22:45;3.90;99.90
23813;DHT22;12087;45.190;5.688;2023-01-19T15:28:11;3.80;99.90
23813;DHT22;12087;45.190;5.688;2023-01-19T15:33:34;3.80;99.90
23813;DHT22;12087;45.190;5.688;2023-01-19T15:38:56;3.80;99.90
23813;DHT22;12087;45.190;5.688;2023-01-19T15:44:19;3.70;99.90
23813;DHT22;12087;45.190;5.688;2023-01-19T15:49:42;3.60;99.90
23813;DHT22;12087;45.190;5.688;2023-01-19T15:55:05;3.60;99.90
23813;DHT22;12087;45.190;5.688;2023-01-19T16:00:30;3.60;99.90
23813;DHT22;12087;45.190;5.688;2023-01-19T16:05:52;3.60;99.90
23813;DHT22;12087;45.190;5.688;2023-01-19T16:11:15;3.60;99.90
23813;DHT22;12087;45.190;5.688;2023-01-19T16:16:39;3.50;99.90
23813;DHT22;12087;45.190;5.688;2023-01-19T16:22:04;3.40;99.90
23813;DHT22;12087;45.190;5.688;2023-01-19T16:27:26;3.40;99.90
23813;DHT22;12087;45.190;5.688;2023-01-19T16:32:50;3.30;99.90
23813;DHT22;12087;45.190;5.688;2023-01-19T16:38:13;3.30;99.90
23813;DHT22;12087;45.190;5.688;2023-01-19T16:43:35;3.20;99.90
23813;DHT22;12087;45.190;5.688;2023-01-19T16:49:00;3.20;99.90
23813;DHT22;12087;45.190;5.688;2023-01-19T16:54:23;3.10;99.90
23813;DHT22;12087;45.190;5.688;2023-01-19T16:59:46;3.20;99.90
23813;DHT22;12087;45.190;5.688;2023-01-19T17:05:11;3.10;99.90
23813;DHT22;12087;45.190;5.688;2023-01-19T17:10:35;3.20;99.90
23813;DHT22;12087;45.190;5.688;2023-01-19T17:16:00;3.20;99.90
23813;DHT22;12087;45.190;5.688;2023-01-19T17:21:24;3.20;99.90
23813;DHT22;12087;45.190;5.688;2023-01-19T17:26:47;3.20;99.90
23813;DHT22;12087;45.190;5.688;2023-01-19T17:32:10;3.20;99.90
23813;DHT22;12087;45.190;5.688;2023-01-19T17:37:33;3.30;99.90
23813;DHT22;12087;45.190;5.688;2023-01-19T17:42:56;3.30;99.90
23813;DHT22;12087;45.190;5.688;2023-01-19T17:48:18;3.20;99.90
23813;DHT22;12087;45.190;5.688;2023-01-19T17:53:42;3.30;99.90
23813;DHT22;12087;45.190;5.688;2023-01-19T17:59:05;3.20;99.90
23813;DHT22;12087;45.190;5.688;2023-01-19T18:04:27;3.10;99.90
23813;DHT22;12087;45.190;5.688;2023-01-19T18:09:51;3.20;99.90
23813;DHT22;12087;45.190;5.688;2023-01-19T18:15:16;3.20;99.90
23813;DHT22;12087;45.190;5.688;2023-01-19T18:20:38;3.20;99.90
23813;DHT22;12087;45.190;5.688;2023-01-19T18:26:03;3.20;99.90
23813;DHT22;12087;45.190;5.688;2023-01-19T18:31:26;3.20;99.90
23813;DHT22;12087;45.190;5.688;2023-01-19T18:36:48;3.20;99.90
23813;DHT22;12087;45.190;5.688;2023-01-19T18:42:12;3.20;99.90
23813;DHT22;12087;45.190;5.688;2023-01-19T18:47:35;3.20;99.90
23813;DHT22;12087;45.190;5.688;2023-01-19T18:52:57;3.20;99.90
23813;DHT22;12087;45.190;5.688;2023-01-19T18:58:22;3.10;99.90
23813;DHT22;12087;45.190;5.688;2023-01-19T19:03:44;3.10;99.90
23813;DHT22;12087;45.190;5.688;2023-01-19T19:09:06;3.10;99.90
23813;DHT22;12087;45.190;5.688;2023-01-19T19:14:31;3.00;99.90
23813;DHT22;12087;45.190;5.688;2023-01-19T19:19:53;2.90;99.90
23813;DHT22;12087;45.190;5.688;2023-01-19T19:25:16;2.70;99.90
23813;DHT22;12087;45.190;5.688;2023-01-19T19:30:40;2.70;99.90
23813;DHT22;12087;45.190;5.688;2023-01-19T19:36:04;2.60;99.90
23813;DHT22;12087;45.190;5.688;2023-01-19T19:41:27;2.60;99.90
23813;DHT22;12087;45.190;5.688;2023-01-19T19:46:53;2.50;99.90
23813;DHT22;12087;45.190;5.688;2023-01-19T19:52:15;2.50;99.90
23813;DHT22;12087;45.190;5.688;2023-01-19T19:57:37;2.60;99.90
23813;DHT22;12087;45.190;5.688;2023-01-19T20:03:01;2.70;99.90
23813;DHT22;12087;45.190;5.688;2023-01-19T20:08:23;2.70;99.90
23813;DHT22;12087;45.190;5.688;2023-01-19T20:13:45;2.60;99.90
23813;DHT22;12087;45.190;5.688;2023-01-19T20:19:10;2.50;99.90
23813;DHT22;12087;45.190;5.688;2023-01-19T20:24:32;2.40;99.90
23813;DHT22;12087;45.190;5.688;2023-01-19T20:29:54;2.40;99.90
23813;DHT22;12087;45.190;5.688;2023-01-19T20:35:19;2.40;99.90
23813;DHT22;12087;45.190;5.688;2023-01-19T20:40:41;2.30;99.90
23813;DHT22;12087;45.190;5.688;2023-01-19T20:46:04;2.20;99.90
23813;DHT22;12087;45.190;5.688;2023-01-19T20:51:28;2.10;99.90
23813;DHT22;12087;45.190;5.688;2023-01-19T20:56:51;2.10;99.90
23813;DHT22;12087;45.190;5.688;2023-01-19T21:02:13;2.10;99.90
23813;DHT22;12087;45.190;5.688;2023-01-19T21:07:37;2.10;99.90
23813;DHT22;12087;45.190;5.688;2023-01-19T21:13:00;2.20;99.90
23813;DHT22;12087;45.190;5.688;2023-01-19T21:18:22;2.20;99.90
23813;DHT22;12087;45.190;5.688;2023-01-19T21:23:46;2.20;99.90
23813;DHT22;12087;45.190;5.688;2023-01-19T21:29:09;2.10;99.90
23813;DHT22;12087;45.190;5.688;2023-01-19T21:34:33;2.00;99.90
23813;DHT22;12087;45.190;5.688;2023-01-19T21:39:57;1.90;99.90
23813;DHT22;12087;45.190;5.688;2023-01-19T21:45:19;1.80;99.90
23813;DHT22;12087;45.190;5.688;2023-01-19T21:50:42;1.70;99.90
23813;DHT22;12087;45.190;5.688;2023-01-19T21:56:06;1.80;99.90
23813;DHT22;12087;45.190;5.688;2023-01-19T22:01:29;1.80;99.90
23813;DHT22;12087;45.190;5.688;2023-01-19T22:06:52;1.70;99.90
23813;DHT22;12087;45.190;5.688;2023-01-19T22:12:15;1.90;99.90
23813;DHT22;12087;45.190;5.688;2023-01-19T22:17:37;1.90;99.90
23813;DHT22;12087;45.190;5.688;2023-01-19T22:23:00;1.90;99.90
23813;DHT22;12087;45.190;5.688;2023-01-19T22:28:23;1.80;99.90
23813;DHT22;12087;45.190;5.688;2023-01-19T22:33:46;1.70;99.90
23813;DHT22;12087;45.190;5.688;2023-01-19T22:39:10;1.70;99.90
23813;DHT22;12087;45.190;5.688;2023-01-19T22:44:34;1.70;99.90
23813;DHT22;12087;45.190;5.688;2023-01-19T22:49:56;1.80;99.90
23813;DHT22;12087;45.190;5.688;2023-01-19T22:55:18;1.60;99.90
23813;DHT22;12087;45.190;5.688;2023-01-19T23:00:42;1.50;99.90
23813;DHT22;12087;45.190;5.688;2023-01-19T23:06:05;1.60;99.90
23813;DHT22;12087;45.190;5.688;2023-01-19T23:11:29;1.60;99.90
23813;DHT22;12087;45.190;5.688;2023-01-19T23:16:54;1.60;99.90
23813;DHT22;12087;45.190;5.688;2023-01-19T23:22:16;1.50;99.90
23813;DHT22;12087;45.190;5.688;2023-01-19T23:27:38;1.50;99.90
23813;DHT22;12087;45.190;5.688;2023-01-19T23:33:02;1.40;99.90
23813;DHT22;12087;45.190;5.688;2023-01-19T23:38:24;1.40;99.90
23813;DHT22;12087;45.190;5.688;2023-01-19T23:43:47;1.40;99.90
23813;DHT22;12087;45.190;5.688;2023-01-19T23:49:11;1.40;99.90
23813;DHT22;12087;45.190;5.688;2023-01-19T23:54:33;1.40;99.90
23813;DHT22;12087;45.190;5.688;2023-01-19T23:59:56;1.30;99.90
